Time;durP1;ratioP1;P1;durP2;ratioP2;P2;SDS_P1;SDS_P2;PMS_P1;PMS_P2;Temp;Humidity;BMP_temperature;BMP_pressure;BME280_temperature;BME280_humidity;BME280_pressure;Samples;Min_cycle;Max_cycle;Signal;HPM_P1;HPM_P2
2023/09/16 00:00:10;;;;;;;14.13;4.35;;;24.40;99.90;;;;;;5014690;28;20080;-52
2023/09/16 00:02:36;;;;;;;10.60;3.70;;;24.50;99.90;;;;;;5014476;28;20082;-52
2023/09/16 00:05:03;;;;;;;17.95;4.78;;;24.50;99.90;;;;;;5014645;28;20113;-52
2023/09/16 00:07:29;;;;;;;16.25;4.05;;;24.50;99.90;;;;;;5014686;28;20053;-52
2023/09/16 00:09:58;;;;;;;15.23;4.50;;;24.50;99.90;;;;;;5014611;28;20026;-52
2023/09/16 00:12:24;;;;;;;18.83;4.72;;;24.50;99.90;;;;;;5014443;28;20042;-52
2023/09/16 00:14:50;;;;;;;22.10;4.53;;;24.50;99.90;;;;;;5014471;28;20021;-52
2023/09/16 00:17:17;;;;;;;13.75;4.65;;;24.50;99.90;;;;;;5014516;28;20488;-51
2023/09/16 00:19:43;;;;;;;12.55;3.90;;;24.50;99.90;;;;;;5014462;28;20022;-52
2023/09/16 00:22:10;;;;;;;10.98;4.07;;;24.50;99.90;;;;;;4996696;28;20357;-52
2023/09/16 00:24:36;;;;;;;12.32;3.88;;;24.50;99.90;;;;;;5014290;28;20029;-51
2023/09/16 00:27:03;;;;;;;18.45;4.15;;;24.50;99.90;;;;;;5014351;28;20022;-52
2023/09/16 00:29:29;;;;;;;13.30;4.13;;;24.50;99.90;;;;;;4996629;28;20395;-51
2023/09/16 00:31:56;;;;;;;14.05;3.90;;;24.40;99.90;;;;;;5014130;28;20042;-51
2023/09/16 00:34:22;;;;;;;9.23;4.20;;;24.50;99.90;;;;;;4996522;28;20022;-51
2023/09/16 00:36:47;;;;;;;13.60;4.32;;;24.50;99.90;;;;;;5014155;28;20395;-52
2023/09/16 00:39:14;;;;;;;17.25;4.30;;;24.50;99.90;;;;;;5013881;28;20104;-52
2023/09/16 00:41:40;;;;;;;17.80;4.10;;;24.50;99.90;;;;;;5014015;28;20030;-52
2023/09/16 00:44:06;;;;;;;16.33;3.92;;;24.50;99.90;;;;;;4996393;28;20109;-52
2023/09/16 00:46:32;;;;;;;14.95;4.93;;;24.50;99.90;;;;;;5013767;28;20567;-51
2023/09/16 00:48:58;;;;;;;12.45;3.92;;;24.50;99.90;;;;;;5013050;28;20101;-52
2023/09/16 00:51:24;;;;;;;11.10;4.07;;;24.50;99.90;;;;;;5013733;28;20455;-52
2023/09/16 00:53:51;;;;;;;14.13;4.03;;;24.60;99.90;;;;;;5014005;28;20025;-51
2023/09/16 00:56:17;;;;;;;14.15;3.45;;;24.60;99.90;;;;;;5013952;28;20025;-52
2023/09/16 00:58:44;;;;;;;12.65;4.30;;;24.60;99.90;;;;;;5013642;28;20049;-52
2023/09/16 01:01:10;;;;;;;17.97;3.90;;;24.70;99.90;;;;;;5009391;23;20058;-50
2023/09/16 01:03:36;;;;;;;12.02;3.10;;;24.70;99.90;;;;;;4994042;28;20031;-50
2023/09/16 01:06:04;;;;;;;14.82;3.70;;;24.70;99.90;;;;;;4993952;28;20527;-50
2023/09/16 01:08:32;;;;;;;13.27;3.90;;;24.70;99.90;;;;;;4994246;28;20026;-50
2023/09/16 01:10:58;;;;;;;18.10;4.20;;;24.70;99.90;;;;;;4993866;28;20455;-50
2023/09/16 01:13:24;;;;;;;8.93;3.22;;;24.70;99.90;;;;;;4993915;28;20019;-50
2023/09/16 01:16:10;;;;;;;12.30;3.45;;;24.80;99.90;;;;;;4993916;28;20469;-50
2023/09/16 01:18:40;;;;;;;9.35;3.75;;;24.80;99.90;;;;;;4993763;28;20022;-51
2023/09/16 01:21:08;;;;;;;12.60;4.25;;;24.80;99.90;;;;;;4994024;28;20012;-50
2023/09/16 01:23:34;;;;;;;;;;;24.80;99.90;;;;;;4994074;28;20468;-50
2023/09/16 01:25:59;;;;;;;18.60;4.68;;;24.80;99.90;;;;;;4993804;28;19912;-51
2023/09/16 01:28:26;;;;;;;15.35;4.00;;;24.80;99.90;;;;;;4993610;28;20026;-50
2023/09/16 01:30:55;;;;;;;10.82;4.22;;;24.80;99.90;;;;;;4993698;28;20062;-49
2023/09/16 01:33:47;;;;;;;11.77;3.63;;;24.80;99.90;;;;;;4993608;28;20033;-49
2023/09/16 01:36:19;;;;;;;15.70;4.38;;;24.80;99.90;;;;;;4993521;28;20094;-50
2023/09/16 01:38:48;;;;;;;17.05;4.10;;;24.70;99.90;;;;;;4993366;28;20440;-50
2023/09/16 01:41:17;;;;;;;11.45;4.10;;;24.80;99.90;;;;;;4993244;28;20018;-50
2023/09/16 01:43:43;;;;;;;11.23;3.92;;;24.70;99.90;;;;;;4993168;28;20030;-49
2023/09/16 01:46:10;;;;;;;14.07;4.07;;;24.70;99.90;;;;;;4993265;28;20388;-50
2023/09/16 01:48:36;;;;;;;9.10;3.42;;;24.70;99.90;;;;;;4993264;28;20057;-50
2023/09/16 01:51:02;;;;;;;13.57;4.32;;;24.70;99.90;;;;;;4993242;28;20049;-50
2023/09/16 01:53:28;;;;;;;14.35;4.35;;;24.70;99.90;;;;;;4993082;28;20030;-51
2023/09/16 01:55:54;;;;;;;11.02;4.13;;;24.70;99.90;;;;;;4993377;28;20019;-50
2023/09/16 01:58:19;;;;;;;13.00;5.32;;;24.70;99.90;;;;;;4993268;28;20154;-50
2023/09/16 02:00:45;;;;;;;12.27;3.72;;;24.70;99.90;;;;;;5012894;22;20057;-51
2023/09/16 02:03:11;;;;;;;16.85;4.30;;;24.70;99.90;;;;;;4994965;28;20037;-52
2023/09/16 02:05:37;;;;;;;19.52;4.45;;;24.70;99.90;;;;;;5012786;28;20045;-51
2023/09/16 02:08:03;;;;;;;12.68;4.65;;;24.70;99.90;;;;;;5012420;28;20026;-51
2023/09/16 02:10:29;;;;;;;14.43;4.03;;;24.70;99.90;;;;;;5012685;28;20116;-51
2023/09/16 02:12:54;;;;;;;18.48;4.05;;;24.70;99.90;;;;;;5012912;28;20495;-52
2023/09/16 02:15:20;;;;;;;12.35;4.20;;;24.60;99.90;;;;;;5012675;28;20072;-51
2023/09/16 02:17:46;;;;;;;12.93;4.57;;;24.60;99.90;;;;;;4995017;28;20105;-51
2023/09/16 02:20:12;;;;;;;19.25;4.35;;;24.70;99.90;;;;;;5012410;28;20080;-51
2023/09/16 02:22:40;;;;;;;17.08;5.03;;;24.60;99.90;;;;;;5012348;28;20080;-53
2023/09/16 02:25:06;;;;;;;;;;;24.60;99.90;;;;;;5012921;28;20018;-51
2023/09/16 02:27:32;;;;;;;15.65;5.00;;;24.70;99.90;;;;;;5012480;28;19960;-52
2023/09/16 02:29:58;;;;;;;10.60;4.05;;;24.70;99.90;;;;;;5012413;28;20026;-51
2023/09/16 02:32:24;;;;;;;12.63;4.22;;;24.60;99.90;;;;;;5012589;28;20453;-51
2023/09/16 02:34:49;;;;;;;10.15;3.97;;;24.70;99.90;;;;;;5012167;28;20080;-51
2023/09/16 02:37:15;;;;;;;9.88;3.75;;;24.70;99.90;;;;;;5012148;28;20088;-51
2023/09/16 02:39:41;;;;;;;13.52;4.03;;;24.70;99.90;;;;;;5012332;28;20396;-52
2023/09/16 02:42:07;;;;;;;13.20;4.20;;;24.70;99.90;;;;;;4994647;28;20033;-52
2023/09/16 02:44:32;;;;;;;14.27;5.10;;;24.60;99.90;;;;;;5012217;28;20127;-52
2023/09/16 02:46:58;;;;;;;13.68;4.25;;;24.60;99.90;;;;;;5012269;28;20033;-52
2023/09/16 02:49:25;;;;;;;14.52;4.35;;;24.70;99.90;;;;;;5012323;28;20081;-52
2023/09/16 02:51:51;;;;;;;15.90;4.53;;;24.70;99.90;;;;;;5012176;28;20372;-51
2023/09/16 02:54:17;;;;;;;15.18;4.57;;;24.70;99.90;;;;;;5012077;28;20040;-52
2023/09/16 02:56:42;;;;;;;13.93;5.25;;;24.70;99.90;;;;;;5012052;28;20030;-51
2023/09/16 02:59:08;;;;;;;12.43;4.20;;;24.60;99.90;;;;;;5011992;28;20030;-52
2023/09/16 03:01:34;;;;;;;9.23;4.65;;;24.60;99.90;;;;;;5012328;28;20092;-51
2023/09/16 03:04:00;;;;;;;11.68;4.60;;;24.60;99.90;;;;;;5012168;28;20524;-51
2023/09/16 03:06:26;;;;;;;11.98;4.18;;;24.60;99.90;;;;;;5012263;28;20026;-52
2023/09/16 03:08:52;;;;;;;16.47;4.60;;;24.50;99.90;;;;;;5011941;28;20542;-51
2023/09/16 03:11:18;;;;;;;13.65;4.50;;;24.50;99.90;;;;;;4994653;28;20033;-52
2023/09/16 03:13:44;;;;;;;14.23;4.43;;;24.50;99.90;;;;;;5015847;28;20021;-51
2023/09/16 03:16:19;;;;;;;11.35;4.35;;;24.50;99.90;;;;;;5015702;28;20079;-52
2023/09/16 03:18:46;;;;;;;30.50;6.82;;;24.50;99.90;;;;;;5015558;28;20018;-52
2023/09/16 03:21:14;;;;;;;20.17;5.20;;;24.50;99.90;;;;;;5015527;28;20048;-51
2023/09/16 03:23:40;;;;;;;19.17;5.13;;;24.50;99.90;;;;;;5015602;28;20026;-51
2023/09/16 03:26:07;;;;;;;10.75;4.50;;;24.50;99.90;;;;;;5015529;28;20045;-51
2023/09/16 03:28:33;;;;;;;20.45;5.03;;;24.50;99.90;;;;;;5015464;28;20045;-51
2023/09/16 03:30:59;;;;;;;14.98;4.68;;;24.50;99.90;;;;;;5015519;28;20034;-52
2023/09/16 03:33:25;;;;;;;12.57;4.60;;;24.50;99.90;;;;;;5015428;28;20100;-51
2023/09/16 03:35:50;;;;;;;9.45;4.18;;;24.50;99.90;;;;;;5015401;28;20058;-51
2023/09/16 03:38:18;;;;;;;15.20;3.92;;;24.50;99.90;;;;;;4997650;28;20038;-52
2023/09/16 03:40:43;;;;;;;10.38;3.97;;;24.50;99.90;;;;;;5015202;28;20022;-51
2023/09/16 03:43:09;;;;;;;13.93;4.65;;;24.50;99.90;;;;;;5015118;28;20495;-52
2023/09/16 03:45:35;;;;;;;13.80;3.88;;;24.50;99.90;;;;;;4997477;28;20508;-50
2023/09/16 03:48:01;;;;;;;13.85;4.82;;;24.60;99.90;;;;;;5014654;28;20026;-51
2023/09/16 03:50:27;;;;;;;14.43;4.43;;;24.70;99.90;;;;;;5017253;28;20092;-51
2023/09/16 03:52:53;;;;;;;15.85;4.53;;;24.70;99.90;;;;;;4997874;28;20034;-50
2023/09/16 03:55:19;;;;;;;13.05;4.43;;;24.70;99.90;;;;;;5012906;28;20026;-50
2023/09/16 03:57:45;;;;;;;11.73;4.30;;;24.70;99.90;;;;;;5014387;28;20072;-51
2023/09/16 04:00:12;;;;;;;21.58;4.43;;;24.80;99.90;;;;;;5015191;28;20022;-51
2023/09/16 04:02:40;;;;;;;14.87;5.07;;;24.80;99.90;;;;;;5013408;28;20050;-50
2023/09/16 04:05:07;;;;;;;17.52;4.75;;;24.80;99.90;;;;;;5014293;28;20368;-51
2023/09/16 04:07:32;;;;;;;10.60;3.63;;;24.90;99.90;;;;;;5014266;28;20530;-52
2023/09/16 04:09:58;;;;;;;19.27;4.53;;;24.90;99.90;;;;;;5013905;28;20050;-51
2023/09/16 04:12:24;;;;;;;12.75;4.15;;;24.90;99.90;;;;;;5012568;28;20036;-51
2023/09/16 04:14:50;;;;;;;16.60;4.28;;;25.00;99.90;;;;;;5013350;28;20097;-51
2023/09/16 04:17:16;;;;;;;14.30;4.47;;;25.00;99.90;;;;;;5013718;28;20088;-51
2023/09/16 04:19:41;;;;;;;9.80;4.35;;;25.00;99.90;;;;;;5014610;28;20053;-51
2023/09/16 04:22:07;;;;;;;13.10;4.28;;;25.00;99.90;;;;;;5014469;28;20029;-52
2023/09/16 04:24:33;;;;;;;17.23;3.95;;;25.00;99.90;;;;;;5013344;28;20050;-51
2023/09/16 04:26:59;;;;;;;13.70;4.10;;;25.00;99.90;;;;;;5014529;28;20517;-51
2023/09/16 04:29:25;;;;;;;14.30;3.80;;;25.00;99.90;;;;;;5014197;28;20025;-51
2023/09/16 04:31:53;;;;;;;15.20;4.55;;;25.00;99.90;;;;;;4996467;28;20120;-51
2023/09/16 04:34:19;;;;;;;9.60;4.15;;;25.00;99.90;;;;;;5014204;28;20029;-51
2023/09/16 04:36:45;;;;;;;17.13;4.45;;;25.10;99.90;;;;;;5014093;28;20483;-51
2023/09/16 04:39:11;;;;;;;12.68;3.95;;;25.10;99.90;;;;;;5014110;28;20030;-51
2023/09/16 04:41:36;;;;;;;18.45;4.63;;;25.10;99.90;;;;;;5014057;28;20030;-51
2023/09/16 04:44:03;;;;;;;17.40;4.82;;;25.10;99.90;;;;;;5014257;28;20084;-51
2023/09/16 04:46:29;;;;;;;17.75;4.90;;;25.10;99.90;;;;;;5014272;28;20384;-51
2023/09/16 04:48:55;;;;;;;15.60;4.50;;;25.10;99.90;;;;;;5013951;28;20026;-51
2023/09/16 04:51:21;;;;;;;12.63;4.25;;;25.10;99.90;;;;;;4996370;28;20045;-51
2023/09/16 04:53:49;;;;;;;8.80;3.95;;;25.10;99.90;;;;;;4996431;28;20057;-51
2023/09/16 04:56:15;;;;;;;10.73;4.20;;;25.10;99.90;;;;;;5013846;28;20021;-51
2023/09/16 04:58:41;;;;;;;6.97;3.40;;;25.10;99.90;;;;;;5013706;28;20069;-51
2023/09/16 05:01:07;;;;;;;12.18;4.32;;;25.10;99.90;;;;;;5019816;28;20443;-51
2023/09/16 05:03:33;;;;;;;10.57;4.30;;;25.10;99.90;;;;;;5015667;28;20498;-51
2023/09/16 05:05:59;;;;;;;14.60;4.13;;;25.10;99.90;;;;;;5033516;28;20026;-51
2023/09/16 05:08:25;;;;;;;12.30;3.83;;;25.10;99.90;;;;;;5033314;28;20030;-52
2023/09/16 05:10:55;;;;;;;12.27;3.90;;;25.10;99.90;;;;;;5032453;28;20112;-51
2023/09/16 05:13:21;;;;;;;8.52;3.90;;;25.10;99.90;;;;;;5033137;28;20029;-51
2023/09/16 05:15:48;;;;;;;8.73;4.05;;;25.10;99.90;;;;;;5033266;28;20056;-51
2023/09/16 05:18:14;;;;;;;13.88;3.78;;;25.00;99.90;;;;;;5033304;28;20148;-52
2023/09/16 05:20:40;;;;;;;12.45;4.43;;;25.00;99.90;;;;;;5015415;28;20120;-51
2023/09/16 05:23:06;;;;;;;7.93;3.60;;;25.00;99.90;;;;;;5033092;28;20109;-51
2023/09/16 05:25:32;;;;;;;9.98;3.55;;;25.00;99.90;;;;;;5015787;28;20022;-51
2023/09/16 05:27:57;;;;;;;9.52;3.80;;;25.00;99.90;;;;;;5015239;28;20029;-51
2023/09/16 05:30:23;;;;;;;13.35;5.10;;;25.00;99.90;;;;;;5032907;28;20061;-53
2023/09/16 05:32:49;;;;;;;9.30;3.50;;;25.00;99.90;;;;;;5032894;28;20475;-51
2023/09/16 05:35:15;;;;;;;8.25;3.90;;;25.00;99.90;;;;;;5032608;28;20152;-52
2023/09/16 05:37:40;;;;;;;12.30;4.53;;;25.00;99.90;;;;;;5032968;28;20075;-52
2023/09/16 05:40:07;;;;;;;12.52;3.90;;;25.00;99.90;;;;;;5032796;28;20557;-51
2023/09/16 05:42:32;;;;;;;12.52;4.10;;;25.00;99.90;;;;;;5032949;28;20357;-52
2023/09/16 05:45:03;;;;;;;10.20;4.15;;;25.00;99.90;;;;;;5032663;28;20021;-51
2023/09/16 05:47:30;;;;;;;13.88;4.88;;;25.00;99.90;;;;;;5032691;28;20112;-52
2023/09/16 05:49:56;;;;;;;10.27;4.10;;;25.00;99.90;;;;;;5032720;28;20285;-51
2023/09/16 05:52:22;;;;;;;8.87;3.93;;;25.00;99.90;;;;;;5032544;28;20040;-51
2023/09/16 05:54:48;;;;;;;12.73;4.43;;;25.00;99.90;;;;;;5032556;28;20018;-51
2023/09/16 05:57:13;;;;;;;15.95;3.55;;;25.00;99.90;;;;;;5032455;28;20030;-51
2023/09/16 05:59:39;;;;;;;9.10;3.40;;;25.00;99.90;;;;;;5032388;28;20021;-50
2023/09/16 06:02:05;;;;;;;16.10;3.58;;;25.00;99.90;;;;;;5032453;28;20045;-51
2023/09/16 06:04:31;;;;;;;10.68;4.32;;;25.00;99.90;;;;;;5032629;28;20037;-51
2023/09/16 06:06:57;;;;;;;11.90;4.30;;;25.00;99.90;;;;;;5032368;28;20053;-50
2023/09/16 06:09:22;;;;;;;11.38;3.58;;;25.00;99.90;;;;;;5032279;28;20485;-50
2023/09/16 06:11:48;;;;;;;11.35;4.65;;;25.00;99.90;;;;;;5032271;28;20033;-50
2023/09/16 06:14:14;;;;;;;14.10;5.03;;;24.90;99.90;;;;;;5032262;28;20048;-50
2023/09/16 06:16:40;;;;;;;10.82;4.00;;;24.90;99.90;;;;;;5032135;28;20056;-51
2023/09/16 06:19:06;;;;;;;12.23;4.10;;;25.00;99.90;;;;;;5032283;28;20095;-51
2023/09/16 06:21:31;;;;;;;10.90;4.13;;;24.90;99.90;;;;;;5032094;28;20511;-52
2023/09/16 06:23:58;;;;;;;14.43;4.00;;;24.90;99.90;;;;;;5032152;28;20503;-51
2023/09/16 06:26:24;;;;;;;11.82;4.00;;;25.00;99.90;;;;;;5032031;28;20041;-52
2023/09/16 06:28:50;;;;;;;13.13;4.40;;;24.90;99.90;;;;;;5032163;28;20375;-51
2023/09/16 06:31:15;;;;;;;9.95;3.70;;;24.90;99.90;;;;;;5014311;28;20029;-51
2023/09/16 06:33:41;;;;;;;11.10;3.83;;;24.90;99.90;;;;;;5032030;28;20101;-51
2023/09/16 06:36:07;;;;;;;14.05;4.35;;;25.00;99.90;;;;;;5032285;28;20415;-51
2023/09/16 06:38:33;;;;;;;9.80;3.90;;;24.90;99.90;;;;;;5032064;28;20026;-51
2023/09/16 06:40:59;;;;;;;9.07;3.78;;;24.90;99.90;;;;;;5031946;28;20079;-52
2023/09/16 06:43:25;;;;;;;15.80;4.55;;;25.00;99.90;;;;;;5031940;28;20025;-52
2023/09/16 06:45:50;;;;;;;13.15;4.25;;;25.00;99.90;;;;;;5014049;28;20017;-52
2023/09/16 06:48:16;;;;;;;7.03;4.03;;;25.00;99.90;;;;;;5035688;28;20434;-52
2023/09/16 06:50:43;;;;;;;12.55;4.15;;;25.00;99.90;;;;;;5035910;28;20482;-51
2023/09/16 06:53:09;;;;;;;16.45;4.40;;;25.00;99.90;;;;;;5035862;28;20480;-51
2023/09/16 06:55:35;;;;;;;12.50;4.15;;;25.10;99.90;;;;;;5036105;28;20024;-51
2023/09/16 06:58:04;;;;;;;11.07;3.58;;;25.10;99.90;;;;;;5035859;28;20033;-51
2023/09/16 07:00:30;;;;;;;15.63;4.22;;;25.10;99.90;;;;;;5035782;28;20478;-50
2023/09/16 07:02:58;;;;;;;13.45;4.70;;;25.20;99.90;;;;;;5035797;28;20026;-51
2023/09/16 07:05:24;;;;;;;11.80;3.97;;;25.20;99.90;;;;;;5018014;28;20104;-51
2023/09/16 07:07:52;;;;;;;14.02;3.70;;;25.20;99.90;;;;;;5035707;28;20052;-51
2023/09/16 07:10:19;;;;;;;12.73;4.93;;;25.30;99.90;;;;;;5035713;28;20481;-51
2023/09/16 07:12:45;;;;;;;11.77;4.53;;;25.20;99.90;;;;;;5035715;28;20493;-51
2023/09/16 07:15:11;;;;;;;18.05;4.47;;;25.30;99.90;;;;;;5035356;28;20029;-51
2023/09/16 07:17:37;;;;;;;17.92;4.60;;;25.30;99.90;;;;;;5035715;28;20071;-51
2023/09/16 07:20:03;;;;;;;12.98;5.35;;;25.30;99.90;;;;;;5035423;28;20566;-50
2023/09/16 07:22:28;;;;;;;15.00;4.57;;;25.30;99.90;;;;;;5035426;28;20053;-51
2023/09/16 07:24:55;;;;;;;12.02;4.57;;;25.30;99.90;;;;;;5035325;28;20438;-51
2023/09/16 07:27:20;;;;;;;15.93;4.60;;;25.30;99.90;;;;;;5035440;28;20101;-51
2023/09/16 07:29:46;;;;;;;13.00;4.40;;;25.30;99.90;;;;;;5035348;28;20060;-51
2023/09/16 07:32:12;;;;;;;14.55;7.18;;;25.30;99.90;;;;;;5035123;28;20494;-52
2023/09/16 07:34:38;;;;;;;18.52;6.07;;;25.30;99.90;;;;;;5035506;28;20134;-52
2023/09/16 07:37:03;;;;;;;19.27;5.25;;;25.30;99.90;;;;;;5035113;28;20382;-51
2023/09/16 07:39:30;;;;;;;17.10;4.45;;;25.40;99.90;;;;;;5035075;28;20459;-51
2023/09/16 07:41:56;;;;;;;17.95;5.00;;;25.40;99.90;;;;;;5034962;28;20502;-51
2023/09/16 07:44:21;;;;;;;18.50;5.00;;;25.40;99.90;;;;;;5034989;28;20100;-51
2023/09/16 07:46:48;;;;;;;13.55;4.97;;;25.40;99.90;;;;;;5034957;28;20383;-51
2023/09/16 07:49:17;;;;;;;15.80;4.83;;;25.40;99.90;;;;;;5034915;28;20017;-51
2023/09/16 07:51:45;;;;;;;16.33;5.40;;;25.40;99.90;;;;;;5034634;28;20042;-51
2023/09/16 07:54:15;;;;;;;21.38;6.47;;;25.50;99.90;;;;;;5035039;28;20022;-51
2023/09/16 07:56:41;;;;;;;16.42;5.10;;;25.50;99.90;;;;;;5035051;28;20061;-51
2023/09/16 07:59:06;;;;;;;13.52;5.95;;;25.50;99.90;;;;;;5034629;28;20061;-51
2023/09/16 08:01:32;;;;;;;14.48;4.35;;;25.60;99.90;;;;;;5034468;28;20062;-52
2023/09/16 08:03:58;;;;;;;13.05;5.30;;;25.60;99.90;;;;;;5016871;28;20383;-52
2023/09/16 08:06:26;;;;;;;14.23;4.45;;;25.70;99.90;;;;;;5016769;28;20051;-52
2023/09/16 08:08:52;;;;;;;17.75;4.40;;;25.70;99.90;;;;;;5034568;28;20041;-52
2023/09/16 08:11:19;;;;;;;15.65;5.15;;;25.70;99.90;;;;;;5034593;28;20387;-52
2023/09/16 08:13:46;;;;;;;18.07;4.27;;;25.80;99.90;;;;;;5034465;28;20025;-52
2023/09/16 08:16:12;;;;;;;16.07;5.10;;;25.80;99.90;;;;;;5034475;28;20277;-52
2023/09/16 08:18:38;;;;;;;13.02;4.70;;;25.80;99.90;;;;;;5034270;28;20747;-52
2023/09/16 08:21:04;;;;;;;14.93;4.78;;;25.90;99.90;;;;;;5034238;28;20100;-52
2023/09/16 08:23:30;;;;;;;18.83;5.40;;;25.90;99.90;;;;;;5034406;28;20117;-51
2023/09/16 08:25:56;;;;;;;14.15;5.30;;;25.90;99.90;;;;;;5016592;28;20092;-51
2023/09/16 08:28:21;;;;;;;14.88;3.90;;;26.00;99.90;;;;;;5034126;28;20026;-52
2023/09/16 08:30:47;;;;;;;9.32;3.95;;;26.10;99.90;;;;;;5034017;28;20388;-51
2023/09/16 08:33:13;;;;;;;16.30;5.20;;;26.10;99.90;;;;;;5034039;28;20033;-52
2023/09/16 08:35:39;;;;;;;19.10;4.85;;;26.10;99.90;;;;;;5016397;28;20032;-51
2023/09/16 08:38:07;;;;;;;14.02;3.78;;;26.20;99.90;;;;;;5033898;28;20033;-52
2023/09/16 08:40:33;;;;;;;10.02;3.88;;;26.20;99.90;;;;;;5033837;28;20029;-52
2023/09/16 08:43:27;;;;;;;16.42;5.53;;;26.20;99.90;;;;;;5033824;28;20072;-51
2023/09/16 08:46:01;;;;;;;14.23;4.72;;;26.30;99.90;;;;;;5033612;28;20030;-51
2023/09/16 08:48:30;;;;;;;10.07;4.47;;;26.30;99.90;;;;;;5033954;28;20021;-50
2023/09/16 08:50:57;;;;;;;15.10;5.68;;;26.40;99.90;;;;;;5033560;28;20021;-51
2023/09/16 08:53:25;;;;;;;11.23;5.43;;;26.40;99.90;;;;;;5033666;28;20398;-50
2023/09/16 08:55:52;;;;;;;16.05;5.80;;;26.40;99.90;;;;;;5033561;28;20078;-50
2023/09/16 08:58:19;;;;;;;21.38;5.07;;;26.50;99.90;;;;;;5033699;28;20026;-50
2023/09/16 09:00:45;;;;;;;14.10;4.43;;;26.50;99.90;;;;;;5033449;28;20049;-50
2023/09/16 09:03:11;;;;;;;16.00;4.80;;;26.50;99.90;;;;;;5033678;28;20620;-50
2023/09/16 09:05:38;;;;;;;11.90;4.00;;;26.60;99.90;;;;;;5033363;28;20026;-50
2023/09/16 09:08:09;;;;;;;14.98;4.40;;;26.60;99.90;;;;;;5033333;28;20021;-50
2023/09/16 09:10:40;;;;;;;11.30;4.32;;;26.60;99.90;;;;;;5032678;28;20113;-51
2023/09/16 09:13:12;;;;;;;8.50;3.97;;;26.70;99.90;;;;;;5033211;28;20025;-52
2023/09/16 09:15:40;;;;;;;9.35;4.30;;;26.70;99.90;;;;;;5033157;28;20029;-52
2023/09/16 09:18:07;;;;;;;10.15;4.43;;;26.70;99.90;;;;;;5033249;28;20052;-51
2023/09/16 09:20:34;;;;;;;11.07;4.78;;;26.80;99.90;;;;;;5033201;28;20501;-51
2023/09/16 09:23:01;;;;;;;15.65;4.93;;;26.80;99.90;;;;;;5033180;28;20479;-51
2023/09/16 09:25:28;;;;;;;16.77;4.88;;;26.80;99.90;;;;;;5032964;28;20025;-51
2023/09/16 09:27:57;;;;;;;14.90;4.55;;;26.80;99.90;;;;;;5033065;28;20033;-51
2023/09/16 09:30:31;;;;;;;16.33;4.90;;;26.90;99.90;;;;;;5032825;28;20079;-52
2023/09/16 09:32:57;;;;;;;15.68;5.22;;;26.90;99.90;;;;;;5032888;28;20061;-50
2023/09/16 09:35:28;;;;;;;16.73;4.60;;;26.90;99.90;;;;;;5032958;28;20026;-51
2023/09/16 09:37:54;;;;;;;9.50;4.13;;;27.00;99.90;;;;;;5032741;28;20434;-51
2023/09/16 09:40:21;;;;;;;9.43;4.57;;;27.00;99.90;;;;;;5032819;28;20052;-51
2023/09/16 09:42:52;;;;;;;10.40;4.30;;;27.00;99.90;;;;;;5032926;28;20021;-51
2023/09/16 09:45:19;;;;;;;12.65;5.00;;;27.10;99.90;;;;;;5032645;28;20036;-51
2023/09/16 09:47:47;;;;;;;14.27;4.80;;;27.10;99.90;;;;;;5032914;28;20025;-50
2023/09/16 09:50:14;;;;;;;8.82;4.22;;;27.10;99.90;;;;;;5015182;28;20088;-51
2023/09/16 09:52:55;;;;;;;16.52;4.95;;;27.20;99.90;;;;;;5014702;28;20061;-51
2023/09/16 09:55:29;;;;;;;16.55;5.25;;;27.20;99.90;;;;;;5032579;28;20045;-51
2023/09/16 09:57:55;;;;;;;13.63;4.43;;;27.30;99.90;;;;;;5014831;28;20498;-51
2023/09/16 10:00:23;;;;;;;22.20;5.47;;;27.30;99.90;;;;;;5032148;28;20037;-51
2023/09/16 10:02:49;;;;;;;14.20;4.65;;;27.30;99.90;;;;;;5032173;28;20040;-51
2023/09/16 10:05:16;;;;;;;19.92;4.60;;;27.40;99.90;;;;;;5032430;28;20356;-51
2023/09/16 10:07:45;;;;;;;14.20;4.65;;;27.40;99.90;;;;;;5032203;28;20395;-52
2023/09/16 10:10:21;;;;;;;12.80;5.53;;;27.40;99.90;;;;;;5032134;28;20108;-51
2023/09/16 10:12:51;;;;;;;15.55;5.07;;;27.50;99.90;;;;;;5032126;28;20522;-51
2023/09/16 10:15:23;;;;;;;10.82;4.57;;;27.50;99.90;;;;;;5032111;28;20526;-51
2023/09/16 10:17:49;;;;;;;8.82;4.43;;;27.50;99.90;;;;;;5032118;28;20037;-51
2023/09/16 10:20:16;;;;;;;11.45;5.03;;;27.50;99.90;;;;;;5032034;28;20114;-51
2023/09/16 10:22:43;;;;;;;9.93;4.55;;;27.60;99.90;;;;;;5013504;28;20022;-50
2023/09/16 10:25:11;;;;;;;13.63;5.50;;;27.60;99.90;;;;;;5031886;28;20087;-51
2023/09/16 10:27:57;;;;;;;11.43;4.88;;;27.60;99.90;;;;;;5031905;28;20033;-51
2023/09/16 10:30:24;;;;;;;16.52;4.70;;;27.70;99.90;;;;;;5031804;28;20059;-51
2023/09/16 10:32:51;;;;;;;12.70;5.05;;;27.70;99.90;;;;;;5031840;28;20483;-51
2023/09/16 10:35:18;;;;;;;10.30;4.40;;;27.70;99.90;;;;;;5031971;28;20049;-51
2023/09/16 10:37:46;;;;;;;11.93;4.30;;;27.80;99.90;;;;;;5031825;28;20029;-51
2023/09/16 10:40:13;;;;;;;13.80;4.85;;;27.80;99.90;;;;;;5014251;28;20026;-51
2023/09/16 10:42:41;;;;;;;12.45;4.53;;;27.80;99.90;;;;;;5031789;28;20026;-50
2023/09/16 10:45:11;;;;;;;14.32;3.90;;;27.90;99.90;;;;;;5031801;28;20033;-51
2023/09/16 10:47:37;;;;;;;13.02;5.75;;;27.90;99.90;;;;;;5014210;28;20400;-51
2023/09/16 10:50:03;;;;;;;10.65;4.57;;;27.90;99.90;;;;;;5031490;28;20025;-50
2023/09/16 10:52:55;;;;;;;8.77;4.75;;;27.90;99.90;;;;;;5031726;28;20029;-51
2023/09/16 10:55:41;;;;;;;11.48;5.43;;;28.00;99.90;;;;;;5023223;28;20029;-51
2023/09/16 10:58:21;;;;;;;14.80;4.43;;;28.00;99.90;;;;;;5031579;28;20108;-51
2023/09/16 11:00:53;;;;;;;11.18;4.15;;;28.00;99.90;;;;;;5013897;28;20129;-51
2023/09/16 11:03:24;;;;;;;11.70;3.83;;;28.00;99.90;;;;;;5031823;28;20406;-51
2023/09/16 11:05:50;;;;;;;10.25;4.05;;;28.00;99.90;;;;;;5031990;28;20104;-51
2023/09/16 11:08:16;;;;;;;12.73;4.85;;;28.00;99.90;;;;;;5031572;28;20548;-50
2023/09/16 11:10:42;;;;;;;14.48;3.33;;;28.00;99.90;;;;;;5013783;28;20038;-49
2023/09/16 11:13:08;;;;;;;10.93;3.70;;;28.00;99.90;;;;;;5013668;28;20029;-49
2023/09/16 11:15:35;;;;;;;10.88;3.05;;;28.00;99.90;;;;;;5031469;28;20022;-50
2023/09/16 11:18:08;;;;;;;21.00;3.97;;;27.90;99.90;;;;;;5031143;28;20037;-50
2023/09/16 11:20:36;;;;;;;11.48;3.40;;;27.90;99.90;;;;;;5031503;28;20255;-51
2023/09/16 11:23:06;;;;;;;10.40;3.28;;;27.90;99.90;;;;;;5031558;28;20041;-51
2023/09/16 11:25:37;;;;;;;11.75;3.65;;;27.90;99.90;;;;;;5031349;28;20021;-50
2023/09/16 11:28:08;;;;;;;10.45;3.70;;;27.90;99.90;;;;;;5031230;28;20037;-51
2023/09/16 11:30:35;;;;;;;10.05;3.22;;;27.90;99.90;;;;;;5011985;28;20510;-49
2023/09/16 11:33:01;;;;;;;8.05;3.05;;;27.90;99.90;;;;;;5009007;28;20096;-51
2023/09/16 11:35:27;;;;;;;7.57;2.92;;;27.90;99.90;;;;;;4993699;28;20030;-50
2023/09/16 11:37:57;;;;;;;7.57;2.83;;;27.90;99.90;;;;;;5009959;28;20442;-49
2023/09/16 11:40:27;;;;;;;8.38;3.13;;;27.80;99.90;;;;;;5008560;28;20029;-50
2023/09/16 11:42:54;;;;;;;17.13;4.30;;;27.90;99.90;;;;;;5006099;28;20093;-51
2023/09/16 11:45:21;;;;;;;11.18;2.72;;;27.90;99.90;;;;;;5007003;28;20034;-50
2023/09/16 11:47:48;;;;;;;11.68;2.75;;;27.80;99.90;;;;;;5010876;28;20381;-51
2023/09/16 11:50:24;;;;;;;10.23;2.78;;;27.80;99.90;;;;;;5008901;28;21159;-50
2023/09/16 11:52:50;;;;;;;21.52;13.18;;;27.90;99.90;;;;;;5009352;28;20069;-51
2023/09/16 11:55:17;;;;;;;12.18;5.05;;;27.90;99.90;;;;;;5010000;28;20093;-51
2023/09/16 11:57:45;;;;;;;14.18;7.85;;;27.90;99.90;;;;;;5011319;28;20034;-50
2023/09/16 12:00:11;;;;;;;18.75;6.95;;;27.90;99.90;;;;;;5008412;28;20026;-50
2023/09/16 12:02:38;;;;;;;9.30;3.42;;;27.90;99.90;;;;;;5006391;28;20046;-51
2023/09/16 12:05:05;;;;;;;9.70;5.18;;;27.90;99.90;;;;;;5007442;28;20036;-50
2023/09/16 12:07:31;;;;;;;9.50;3.97;;;27.90;99.90;;;;;;5006242;28;20496;-50
2023/09/16 12:10:01;;;;;;;8.18;5.55;;;27.90;99.90;;;;;;5010115;28;20504;-50
2023/09/16 12:12:30;;;;;;;13.80;5.63;;;28.00;99.90;;;;;;5008741;28;20033;-50
2023/09/16 12:14:56;;;;;;;5.53;3.50;;;28.00;99.90;;;;;;5010561;28;20141;-50
2023/09/16 12:17:28;;;;;;;16.90;9.95;;;28.00;99.90;;;;;;5010690;28;20048;-50
2023/09/16 12:19:56;;;;;;;5.93;3.70;;;28.10;99.90;;;;;;5009446;28;20053;-50
2023/09/16 12:22:23;;;;;;;11.05;5.78;;;28.20;99.90;;;;;;5007526;28;20022;-50
2023/09/16 12:24:54;;;;;;;10.10;5.90;;;28.20;99.90;;;;;;5010218;28;20034;-50
2023/09/16 12:27:23;;;;;;;6.75;4.88;;;28.20;99.90;;;;;;5008954;28;20037;-50
2023/09/16 12:29:50;;;;;;;21.30;15.02;;;28.20;99.90;;;;;;5010189;28;20026;-50
2023/09/16 12:32:17;;;;;;;16.20;9.68;;;28.30;99.90;;;;;;5009843;28;20052;-51
2023/09/16 12:34:44;;;;;;;9.50;4.65;;;28.30;99.90;;;;;;4988947;28;20377;-50
2023/09/16 12:37:10;;;;;;;20.03;5.17;;;28.30;99.90;;;;;;5009194;28;20026;-51